Nearby METAR Reports

 

KBMG - Bloomington, Indiana, USA
Distance from station: SSE 11mi, 18km
Updated: Wed, 23-Sep-2020 11:53pm EDT
Clear
Clear
 Wind from calm
Wind: Calm
Temperature: 59°F , 15°C
Dew Point: 54°F , 12°C
Humidity: 82%
Barometer: 30.06 inHg , 1017.9 hPa
Clouds: Clear
Visibility: 10 miles , 16 km
2020/09/24 03:53 KBMG 240353Z AUTO 00000KT 10SM CLR 15/12 A3006 RMK AO2 SLP175 T01500122
KGPC - Greencastle, Indiana, USA
Distance from station: NNW 24mi, 39km
Updated: Thu, 24-Sep-2020 12:15am EDT
Clear
Clear
 Wind from SSW
Wind: SSW 3 mph , 6 km/h
Temperature: 55°F , 13°C
Dew Point: 54°F , 12°C
Humidity: 94%
Barometer: 30.05 inHg , 1017.6 hPa
Clouds: Clear
Visibility: 10 miles , 16 km
2020/09/24 04:15 KGPC 240415Z AUTO 20003KT 10SM CLR 13/12 A3005 RMK AO2 T01350119
 
KHUF - Terre Haute, Indiana, USA
Distance from station: WNW 34mi, 54km
Updated: Wed, 23-Sep-2020 11:53pm EDT
Clear
Clear
 Wind from calm
Wind: Calm
Temperature: 57°F , 14°C
Dew Point: 52°F , 11°C
Humidity: 82%
Barometer: 30.05 inHg , 1017.6 hPa
Clouds: Clear
Visibility: 10 miles , 16 km
2020/09/24 03:53 KHUF 240353Z AUTO 00000KT 10SM CLR 14/11 A3005 RMK AO2 SLP174 T01390106
KIND - Indianapolis, Indiana, USA
Distance from station: NE 36mi, 58km
Updated: Wed, 23-Sep-2020 11:54pm EDT
Overcast
Overcast
 Wind from SW
Wind: SW 7 mph , 11 km/h
Temperature: 61°F , 16°C
Dew Point: 54°F , 12°C
Humidity: 77%
Barometer: 30.05 inHg , 1017.6 hPa
Clouds: Overcast
Visibility: 10 miles , 16 km
Cloud details: Overcast 20000 ft
2020/09/24 03:54 KIND 240354Z 22006KT 10SM OVC200 16/12 A3005 RMK AO2 SLP172 T01610117
 
KHFY - Indianapolis, Indiana, USA
Distance from station: NE 40mi, 65km
Updated: Thu, 24-Sep-2020 12:15am EDT
Clear
Clear
 Wind from calm
Wind: Calm
Temperature: 59°F , 15°C
Dew Point: 55°F , 13°C
Humidity: 88%
Barometer: 30.06 inHg , 1017.9 hPa
Clouds: Clear
Visibility: 10 miles , 16 km
2020/09/24 04:15 KHFY 240415Z AUTO 00000KT 10SM CLR 15/13 A3006 RMK AO2 T01500125
KBAK - Columbus/Balkala, Indiana, USA
Distance from station: E 43mi, 69km
Updated: Wed, 23-Sep-2020 9:45pm EDT
NOT Current
Clear
Clear
 Wind from calm
Wind: Calm
Temperature: 61°F , 16°C
Dew Point: 54°F , 12°C
Humidity: 77%
Barometer: 30.07 inHg , 1018.3 hPa
Clouds: Clear
Visibility: 10 miles , 16 km
2020/09/24 01:45 KBAK 240145Z 00000KT 10SM SKC 16/12 A3007 RMK LAST
 
KEYE - Indianapolis, Indiana, USA
Distance from station: NNE 43mi, 69km
Updated: Wed, 23-Sep-2020 11:53pm EDT
Clear
Clear
 Wind from calm
Wind: Calm
Temperature: 61°F , 16°C
Dew Point: 54°F , 12°C
Humidity: 77%
Barometer: 30.05 inHg , 1017.6 hPa
Clouds: Clear
Visibility: 10 miles , 16 km
2020/09/24 03:53 KEYE 240353Z AUTO 00000KT 10SM CLR 16/12 A3005 RMK AO2 SLP170 T01610117
KDCY - Daviess County, Indiana, USA
Distance from station: SSW 47mi, 76km
Updated: Thu, 24-Sep-2020 12:15am EDT
Clear
Clear
 Wind from calm
Wind: Calm
Temperature: 57°F , 14°C
Dew Point: 54°F , 12°C
Humidity: 88%
Barometer: 30.05 inHg , 1017.6 hPa
Clouds: Clear
Visibility: 10 miles , 16 km
2020/09/24 04:15 KDCY 240415Z AUTO 00000KT 10SM CLR 14/12 A3005 RMK AO2 T01400122
 
KCFJ - Crawfordsville, Indiana, USA
Distance from station: NNW 49mi, 78km
Updated: Thu, 24-Sep-2020 12:15am EDT
Clear
Clear
 Wind from calm
Wind: Calm
Temperature: 55°F , 13°C
Dew Point: 50°F , 10°C
Humidity: 82%
Barometer: 30.05 inHg , 1017.6 hPa
Clouds: Clear
Visibility: 10 miles , 16 km
2020/09/24 04:15 KCFJ 240415Z AUTO 00000KT 10SM CLR 13/10 A3005 RMK AO2 T01300097